Time;durP1;ratioP1;P1;durP2;ratioP2;P2;SDS_P1;SDS_P2;PMS_P1;PMS_P2;Temp;Humidity;BMP_temperature;BMP_pressure;BME280_temperature;BME280_humidity;BME280_pressure;Samples;Min_cycle;Max_cycle;Signal;HPM_P1;HPM_P2
2022/03/21 00:01:29;;;;;;;33.07;20.10;;;3.20;47.50;;;;;;4995764;28;20479;-70
2022/03/21 00:03:56;;;;;;;29.80;19.30;;;3.40;47.00;;;;;;5013461;28;20455;-72
2022/03/21 00:06:24;;;;;;;28.17;19.90;;;3.70;46.60;;;;;;5013652;28;20849;-70
2022/03/21 00:08:51;;;;;;;27.80;21.87;;;3.90;45.80;;;;;;5013338;28;20566;-72
2022/03/21 00:11:20;;;;;;;32.17;20.13;;;4.10;45.40;;;;;;5013398;28;20452;-73
2022/03/21 00:13:51;;;;;;;29.53;20.27;;;4.10;45.50;;;;;;5012974;28;20513;-71
2022/03/21 00:16:18;;;;;;;36.63;20.17;;;4.20;45.40;;;;;;5013327;28;20456;-69
2022/03/21 00:18:45;;;;;;;29.33;21.73;;;4.30;45.30;;;;;;5013220;28;20471;-70
2022/03/21 00:21:13;;;;;;;31.60;20.53;;;4.30;45.10;;;;;;5013144;28;21086;-70
2022/03/21 00:23:40;;;;;;;30.43;20.93;;;4.40;45.00;;;;;;5012859;28;20467;-69
2022/03/21 00:26:07;;;;;;;25.40;18.93;;;4.50;44.90;;;;;;5013114;28;20451;-69
2022/03/21 00:28:36;;;;;;;30.00;20.00;;;4.50;44.80;;;;;;5013183;28;20482;-71
2022/03/21 00:31:03;;;;;;;25.83;19.53;;;4.60;44.40;;;;;;5013033;28;20803;-70
2022/03/21 00:33:30;;;;;;;32.40;21.00;;;4.60;44.50;;;;;;5013177;28;20887;-70
2022/03/21 00:35:58;;;;;;;35.80;20.37;;;4.40;45.00;;;;;;5013025;28;20463;-69
2022/03/21 00:38:26;;;;;;;31.80;18.60;;;4.30;45.90;;;;;;5012527;28;20482;-71
2022/03/21 00:40:53;;;;;;;30.90;18.90;;;4.20;46.50;;;;;;5012668;28;20487;-69
2022/03/21 00:43:23;;;;;;;31.87;20.13;;;4.30;46.70;;;;;;5012376;28;20466;-70
2022/03/21 00:45:54;;;;;;;24.97;18.43;;;4.30;47.00;;;;;;5012867;28;20459;-71
2022/03/21 00:48:21;;;;;;;34.37;20.70;;;4.40;46.80;;;;;;5012716;28;20475;-71
2022/03/21 00:50:48;;;;;;;29.23;18.53;;;4.30;47.00;;;;;;5012376;28;20806;-72
2022/03/21 00:53:16;;;;;;;27.47;18.13;;;4.20;47.70;;;;;;5012379;28;20964;-68
2022/03/21 00:55:44;;;;;;;27.50;17.23;;;4.20;47.50;;;;;;5012591;28;20513;-70
2022/03/21 00:58:11;;;;;;;28.30;18.47;;;4.20;47.60;;;;;;5012400;28;20487;-68
2022/03/21 01:00:39;;;;;;;30.83;17.17;;;4.20;48.00;;;;;;5011515;28;20503;-68
2022/03/21 01:03:07;;;;;;;28.20;18.10;;;4.00;48.60;;;;;;5012428;28;20463;-70
2022/03/21 01:05:35;;;;;;;24.03;16.40;;;4.10;48.70;;;;;;5012245;28;20535;-71
2022/03/21 01:08:03;;;;;;;24.13;16.60;;;4.10;48.50;;;;;;5012104;28;20968;-71
2022/03/21 01:10:31;;;;;;;22.00;15.47;;;4.00;49.20;;;;;;5012228;28;20490;-71
2022/03/21 01:12:59;;;;;;;25.90;16.60;;;4.00;49.20;;;;;;5012260;28;20471;-68
2022/03/21 01:15:27;;;;;;;24.63;16.00;;;4.10;49.00;;;;;;5012187;28;20452;-70
2022/03/21 01:17:55;;;;;;;24.27;15.47;;;4.10;48.80;;;;;;5011967;28;20483;-69
2022/03/21 01:20:24;;;;;;;18.17;14.27;;;3.90;49.20;;;;;;5011830;28;20500;-69
2022/03/21 01:22:52;;;;;;;19.80;13.60;;;3.90;48.70;;;;;;5011887;28;20471;-71
2022/03/21 01:25:20;;;;;;;31.93;18.90;;;3.80;49.70;;;;;;5012172;28;20452;-72
2022/03/21 01:27:48;;;;;;;30.87;18.77;;;3.70;50.20;;;;;;5012034;28;20476;-71
2022/03/21 01:30:17;;;;;;;30.47;20.23;;;3.70;49.90;;;;;;5011885;28;20459;-68
2022/03/21 01:32:45;;;;;;;38.40;23.13;;;3.70;49.90;;;;;;5011861;28;20820;-69
2022/03/21 01:35:15;;;;;;;35.57;24.60;;;3.80;49.60;;;;;;5011371;28;20457;-72
2022/03/21 01:37:44;;;;;;;42.10;25.77;;;3.70;49.70;;;;;;5011896;28;20478;-69
2022/03/21 01:40:12;;;;;;;44.47;27.23;;;3.70;49.30;;;;;;5012035;28;20479;-70
2022/03/21 01:42:43;;;;;;;41.60;27.60;;;3.60;49.10;;;;;;5011949;28;20462;-71
2022/03/21 01:45:11;;;;;;;45.57;27.70;;;3.80;48.80;;;;;;5011894;28;20467;-72
2022/03/21 01:47:38;;;;;;;38.00;26.40;;;3.70;48.80;;;;;;5011526;28;20471;-70
2022/03/21 01:50:06;;;;;;;38.20;25.60;;;3.70;48.50;;;;;;5011473;28;20947;-69
2022/03/21 01:52:36;;;;;;;37.47;23.83;;;3.80;48.10;;;;;;5011145;28;20455;-68
2022/03/21 01:57:52;;;;;;;35.80;22.57;;;3.60;48.10;;;;;;5011410;28;20459;-72
2022/03/21 02:00:19;;;;;;;44.03;26.00;;;3.60;48.00;;;;;;5011246;28;20500;-71
2022/03/21 02:02:46;;;;;;;35.97;23.70;;;3.70;48.10;;;;;;5011488;28;20444;-68
2022/03/21 02:05:13;;;;;;;41.43;25.43;;;3.60;48.30;;;;;;5011472;28;20456;-68
2022/03/21 02:07:40;;;;;;;42.27;24.73;;;3.60;48.40;;;;;;5011254;28;20483;-69
2022/03/21 02:10:10;;;;;;;35.67;25.90;;;3.60;48.10;;;;;;5010534;28;20459;-69
2022/03/21 02:12:37;;;;;;;36.37;23.70;;;3.60;48.10;;;;;;5010756;28;20456;-69
2022/03/21 02:15:05;;;;;;;39.17;23.93;;;3.50;48.10;;;;;;5011334;28;20448;-69
2022/03/21 02:17:37;;;;;;;38.37;22.20;;;3.60;48.40;;;;;;5011240;28;20499;-69
2022/03/21 02:20:05;;;;;;;39.90;24.70;;;3.60;48.60;;;;;;5011136;28;20526;-72
2022/03/21 02:22:39;;;;;;;36.90;23.63;;;3.50;48.20;;;;;;5010946;28;20803;-71
2022/03/21 02:25:22;;;;;;;39.30;24.57;;;3.50;48.20;;;;;;5011037;28;20893;-71
2022/03/21 02:27:51;;;;;;;34.30;22.20;;;3.40;48.20;;;;;;5010953;28;20472;-71
2022/03/21 02:30:18;;;;;;;30.97;19.90;;;3.50;48.00;;;;;;5011001;28;20805;-69
2022/03/21 02:32:46;;;;;;;29.00;20.07;;;3.40;47.80;;;;;;5010908;28;20463;-70
2022/03/21 02:35:15;;;;;;;39.20;23.07;;;3.40;47.90;;;;;;5010477;28;20456;-68
2022/03/21 02:37:47;;;;;;;30.80;21.00;;;3.30;48.70;;;;;;5010677;28;20885;-71
2022/03/21 02:40:16;;;;;;;29.93;19.80;;;3.30;48.90;;;;;;5010792;28;20537;-69
2022/03/21 02:42:43;;;;;;;34.33;21.53;;;3.30;49.10;;;;;;5010792;28;20460;-69
2022/03/21 02:45:11;;;;;;;36.00;21.53;;;3.30;49.40;;;;;;5010176;28;20471;-69
2022/03/21 02:47:38;;;;;;;31.50;21.67;;;3.30;49.50;;;;;;5010167;28;20488;-71
2022/03/21 02:50:08;;;;;;;31.37;19.43;;;3.00;49.80;;;;;;5010555;28;20456;-72
2022/03/21 02:52:37;;;;;;;30.47;19.17;;;2.90;50.20;;;;;;5010409;28;20463;-70
2022/03/21 02:55:05;;;;;;;23.67;16.17;;;3.00;50.20;;;;;;5010712;28;20483;-73
2022/03/21 02:57:33;;;;;;;31.70;19.33;;;3.10;50.30;;;;;;5010450;28;20555;-72
2022/03/21 03:00:01;;;;;;;24.10;17.00;;;3.10;50.30;;;;;;5010130;28;20455;-69
2022/03/21 03:02:28;;;;;;;29.67;18.07;;;3.10;50.30;;;;;;5010234;28;20455;-71
2022/03/21 03:04:55;;;;;;;26.93;17.67;;;3.20;50.00;;;;;;5009921;28;20459;-69
2022/03/21 03:07:22;;;;;;;29.47;16.43;;;3.00;50.50;;;;;;5010027;28;20479;-72
2022/03/21 03:09:49;;;;;;;29.10;18.97;;;3.00;50.70;;;;;;5010286;28;20570;-70
2022/03/21 03:12:16;;;;;;;27.50;18.50;;;3.10;50.90;;;;;;5010243;28;20447;-71
2022/03/21 03:14:45;;;;;;;22.20;17.37;;;3.10;50.90;;;;;;5009921;28;20452;-68
2022/03/21 03:17:12;;;;;;;33.43;17.63;;;3.20;50.80;;;;;;5010134;28;20479;-71
2022/03/21 03:19:39;;;;;;;37.10;18.43;;;3.30;50.70;;;;;;5009831;28;21014;-71
2022/03/21 03:22:07;;;;;;;23.80;16.00;;;3.20;50.70;;;;;;5009679;28;20498;-71
2022/03/21 03:24:37;;;;;;;30.20;17.87;;;3.00;51.40;;;;;;5010170;28;20873;-69
2022/03/21 03:27:05;;;;;;;25.27;16.93;;;3.20;51.00;;;;;;5010121;28;20452;-70
2022/03/21 03:29:33;;;;;;;24.57;17.00;;;2.90;51.30;;;;;;5009948;28;20489;-70
2022/03/21 03:32:03;;;;;;;27.80;17.10;;;2.70;52.40;;;;;;5009934;28;20872;-71
2022/03/21 03:34:30;;;;;;;24.20;17.60;;;2.90;52.40;;;;;;5010139;28;20444;-69
2022/03/21 03:36:57;;;;;;;25.40;18.03;;;2.70;52.80;;;;;;5010071;28;20452;-69
2022/03/21 03:39:25;;;;;;;29.77;20.43;;;2.80;52.70;;;;;;5010078;28;20452;-70
2022/03/21 03:41:52;;;;;;;27.57;18.40;;;2.80;52.90;;;;;;5009562;28;20499;-69
2022/03/21 03:44:20;;;;;;;28.90;19.07;;;2.70;53.20;;;;;;5009795;28;20467;-69
2022/03/21 03:46:47;;;;;;;32.73;19.93;;;2.60;54.00;;;;;;5009847;28;20491;-72
2022/03/21 03:49:15;;;;;;;29.80;17.23;;;2.70;53.80;;;;;;5009817;28;21000;-72
2022/03/21 03:51:42;;;;;;;29.70;18.00;;;2.30;53.90;;;;;;5009944;28;20448;-70
2022/03/21 03:54:09;;;;;;;29.93;19.83;;;2.20;55.10;;;;;;5009620;28;20979;-68
2022/03/21 03:56:36;;;;;;;30.67;17.90;;;2.20;55.20;;;;;;5009645;28;20454;-70
2022/03/21 03:59:04;;;;;;;30.93;19.20;;;2.20;54.90;;;;;;5009433;28;20476;-70
2022/03/21 04:01:31;;;;;;;25.20;17.07;;;2.40;54.40;;;;;;5009414;28;20510;-71
2022/03/21 04:03:59;;;;;;;24.27;15.97;;;2.50;53.70;;;;;;5009787;28;20959;-70
2022/03/21 04:06:27;;;;;;;29.53;15.97;;;2.60;53.70;;;;;;5009660;28;20940;-69
2022/03/21 04:08:54;;;;;;;25.27;17.40;;;2.60;53.40;;;;;;5009256;28;21060;-68
2022/03/21 04:11:22;;;;;;;29.37;19.30;;;2.50;53.80;;;;;;5009408;28;20462;-70
2022/03/21 04:13:50;;;;;;;39.53;22.80;;;2.20;54.90;;;;;;5009567;28;20456;-68
2022/03/21 04:16:17;;;;;;;34.90;21.93;;;1.80;56.70;;;;;;5009562;28;20466;-70
2022/03/21 04:18:45;;;;;;;34.07;22.50;;;1.80;58.00;;;;;;5009613;28;20471;-72
2022/03/21 04:21:12;;;;;;;23.60;17.70;;;2.00;57.10;;;;;;5009159;28;20999;-67
2022/03/21 04:23:40;;;;;;;25.30;17.17;;;2.20;56.20;;;;;;5009561;28;20486;-69
2022/03/21 04:26:07;;;;;;;26.23;17.97;;;2.40;55.60;;;;;;5009338;28;20448;-72
2022/03/21 04:28:34;;;;;;;24.10;16.83;;;2.60;54.00;;;;;;5009424;28;20475;-69
2022/03/21 04:31:01;;;;;;;27.33;17.70;;;2.60;55.10;;;;;;5009620;28;20535;-70
2022/03/21 04:33:29;;;;;;;24.80;14.97;;;2.70;54.60;;;;;;5009489;28;20927;-68
2022/03/21 04:35:56;;;;;;;27.87;18.50;;;2.70;54.50;;;;;;5012818;28;20447;-69
2022/03/21 04:38:23;;;;;;;33.03;16.97;;;2.80;54.90;;;;;;5012852;28;20972;-68
2022/03/21 04:40:52;;;;;;;28.97;18.33;;;2.90;54.80;;;;;;5012772;28;20491;-68
2022/03/21 04:43:20;;;;;;;33.70;18.53;;;3.10;54.60;;;;;;5013035;28;20850;-70
2022/03/21 04:45:49;;;;;;;26.17;18.47;;;3.20;55.10;;;;;;5013002;28;20816;-70
2022/03/21 04:48:16;;;;;;;23.83;16.00;;;3.00;55.20;;;;;;5013018;28;20798;-70
2022/03/21 04:50:44;;;;;;;26.93;16.77;;;3.00;54.70;;;;;;5012648;28;20462;-70
2022/03/21 04:53:11;;;;;;;31.33;19.50;;;2.90;54.90;;;;;;5012623;28;20537;-73
2022/03/21 04:55:39;;;;;;;30.83;21.53;;;3.00;55.20;;;;;;5012660;28;20812;-73
2022/03/21 04:58:08;;;;;;;36.60;22.63;;;3.10;55.90;;;;;;5012696;28;20836;-72
2022/03/21 05:00:35;;;;;;;33.53;19.57;;;3.20;55.60;;;;;;5012447;28;21012;-72
2022/03/21 05:03:07;;;;;;;21.30;16.17;;;3.30;55.10;;;;;;5012771;28;20455;-71
2022/03/21 05:05:34;;;;;;;27.33;16.73;;;3.20;54.90;;;;;;5012171;28;20456;-72
2022/03/21 05:08:02;;;;;;;30.30;17.17;;;3.10;55.90;;;;;;5012460;28;20498;-72
2022/03/21 05:10:30;;;;;;;24.90;16.57;;;3.00;56.80;;;;;;5012397;28;20460;-72
2022/03/21 05:12:58;;;;;;;27.40;17.13;;;3.00;54.30;;;;;;5011980;28;20522;-72
2022/03/21 05:15:27;;;;;;;24.73;17.20;;;3.00;53.90;;;;;;5012627;28;20557;-73
2022/03/21 05:17:54;;;;;;;22.20;16.63;;;3.10;54.50;;;;;;5012366;28;20472;-72
2022/03/21 05:20:21;;;;;;;30.73;19.40;;;3.00;55.20;;;;;;5012194;28;20468;-72
2022/03/21 05:30:57;;;;;;;30.60;20.57;;;3.00;56.20;;;;;;5011956;28;20491;-72
2022/03/21 05:31:11;;;;;;;31.37;20.97;;;3.30;54.90;;;;;;5011940;28;20482;-72
2022/03/21 05:36:24;;;;;;;30.93;17.03;;;3.60;53.00;;;;;;5011575;28;20899;-73
2022/03/21 05:38:52;;;;;;;18.70;15.00;;;3.60;53.30;;;;;;5011983;28;20472;-72
2022/03/21 05:41:19;;;;;;;23.23;15.03;;;3.80;52.10;;;;;;5011597;28;20491;-72
2022/03/21 05:43:46;;;;;;;22.30;15.00;;;3.90;51.00;;;;;;5011806;28;20463;-71
2022/03/21 05:46:14;;;;;;;20.67;13.30;;;4.10;50.00;;;;;;5011649;28;21010;-71
2022/03/21 05:48:58;;;;;;;23.20;11.90;;;4.10;49.90;;;;;;5011594;28;20630;-72
2022/03/21 05:51:28;;;;;;;15.63;11.97;;;4.20;49.40;;;;;;5011345;28;20952;-72
2022/03/21 05:53:55;;;;;;;15.07;10.80;;;4.40;49.00;;;;;;5011656;28;20546;-72
2022/03/21 05:56:25;;;;;;;19.70;12.27;;;4.60;48.50;;;;;;5011600;28;20944;-72
2022/03/21 05:58:52;;;;;;;15.73;11.43;;;4.60;47.90;;;;;;5011633;28;20542;-72
2022/03/21 06:01:23;;;;;;;19.03;11.20;;;4.70;48.10;;;;;;5011097;28;20508;-72
2022/03/21 06:03:52;;;;;;;14.17;9.83;;;4.80;48.00;;;;;;5011457;28;20527;-72
2022/03/21 06:06:19;;;;;;;15.83;11.27;;;4.80;47.70;;;;;;5011440;28;20463;-71
2022/03/21 06:08:46;;;;;;;18.63;10.80;;;4.80;46.30;;;;;;5011132;28;20486;-72
2022/03/21 06:11:13;;;;;;;12.57;9.43;;;4.80;46.30;;;;;;5011340;28;20463;-72
2022/03/21 06:13:43;;;;;;;13.17;9.23;;;5.00;46.30;;;;;;5011168;28;20460;-72
2022/03/21 06:16:11;;;;;;;14.80;10.77;;;5.00;46.70;;;;;;5011044;28;20455;-73
2022/03/21 06:18:40;;;;;;;16.63;10.20;;;5.20;46.70;;;;;;5010896;28;20482;-72
2022/03/21 06:21:09;;;;;;;14.17;9.77;;;5.30;46.60;;;;;;5010950;28;20540;-72
2022/03/21 06:23:37;;;;;;;15.90;11.30;;;5.40;45.90;;;;;;5010901;28;20459;-72
2022/03/21 06:26:05;;;;;;;16.50;12.77;;;5.40;46.80;;;;;;5011021;28;20488;-74
2022/03/21 06:28:33;;;;;;;19.27;13.57;;;5.60;46.50;;;;;;5010893;28;20483;-72
2022/03/21 06:31:00;;;;;;;22.57;11.60;;;5.80;46.10;;;;;;5010709;28;20456;-72
2022/03/21 06:33:29;;;;;;;15.60;11.07;;;5.80;46.60;;;;;;5010476;28;20909;-72
2022/03/21 06:36:00;;;;;;;18.33;11.80;;;5.90;45.70;;;;;;5010839;28;20571;-73
2022/03/21 06:38:27;;;;;;;15.17;10.50;;;5.90;45.60;;;;;;5010787;28;20983;-72
2022/03/21 06:40:55;;;;;;;16.43;10.90;;;6.20;45.00;;;;;;4993038;28;20510;-69
2022/03/21 06:43:23;;;;;;;15.73;11.00;;;6.30;44.90;;;;;;5010251;28;20523;-69
2022/03/21 06:45:51;;;;;;;17.63;12.23;;;6.50;45.60;;;;;;5010172;28;20462;-74
2022/03/21 06:48:18;;;;;;;17.57;10.13;;;6.50;44.00;;;;;;5010527;28;21098;-75
2022/03/21 06:50:46;;;;;;;15.47;10.60;;;6.40;44.10;;;;;;5011280;28;20514;-78
2022/03/21 06:53:14;;;;;;;17.10;9.93;;;6.60;44.10;;;;;;5010684;28;20542;-82
2022/03/21 06:55:42;;;;;;;17.00;11.87;;;6.80;43.50;;;;;;5010450;28;20492;-74
2022/03/21 06:58:11;;;;;;;15.33;10.27;;;6.70;42.70;;;;;;5009587;28;20486;-71
2022/03/21 07:00:40;;;;;;;17.57;10.60;;;6.80;42.40;;;;;;5010321;28;20827;-70
2022/03/21 07:03:08;;;;;;;13.77;9.77;;;6.50;43.30;;;;;;5010254;28;20491;-72
2022/03/21 07:05:35;;;;;;;13.90;10.33;;;6.60;43.60;;;;;;5010592;28;20478;-79
2022/03/21 07:08:03;;;;;;;16.60;11.40;;;6.70;43.50;;;;;;5010258;28;20471;-80
2022/03/21 07:10:33;;;;;;;17.53;11.70;;;6.70;43.00;;;;;;5010627;28;20487;-78
2022/03/21 07:13:00;;;;;;;16.27;12.37;;;6.90;43.10;;;;;;5010511;28;20462;-76
2022/03/21 07:15:28;;;;;;;17.43;12.83;;;7.00;43.50;;;;;;5010268;28;20467;-76
2022/03/21 07:17:55;;;;;;;18.23;13.17;;;7.20;43.10;;;;;;5010457;28;20484;-80
2022/03/21 07:20:25;;;;;;;21.07;13.77;;;7.30;43.30;;;;;;5010200;28;20506;-81
2022/03/21 07:22:53;;;;;;;21.00;12.53;;;7.40;43.30;;;;;;5009978;28;20506;-76
2022/03/21 07:25:20;;;;;;;15.23;10.87;;;7.30;42.80;;;;;;5010178;28;20447;-75
2022/03/21 07:27:49;;;;;;;17.23;12.47;;;7.30;42.60;;;;;;5009977;28;20502;-78
2022/03/21 07:30:17;;;;;;;16.90;11.63;;;7.20;42.40;;;;;;5009983;28;20456;-82
2022/03/21 07:32:45;;;;;;;14.93;12.40;;;7.30;42.80;;;;;;5011156;28;20448;-78
2022/03/21 07:35:13;;;;;;;16.60;12.13;;;7.50;42.60;;;;;;5011131;28;20451;-79
2022/03/21 07:37:41;;;;;;;15.30;11.30;;;7.60;42.70;;;;;;5009408;28;20920;-76
2022/03/21 07:40:11;;;;;;;15.30;10.77;;;7.50;42.40;;;;;;5009651;28;20458;-76
2022/03/21 07:42:38;;;;;;;15.87;11.57;;;7.70;42.20;;;;;;4992336;28;20577;-70
2022/03/21 07:47:53;;;;;;;17.63;11.10;;;8.00;42.30;;;;;;5009430;28;20459;-71
2022/03/21 07:50:23;;;;;;;17.93;12.63;;;8.10;42.90;;;;;;5009367;28;20458;-73
2022/03/21 07:52:50;;;;;;;19.10;12.60;;;8.10;42.10;;;;;;5009506;28;20497;-71
2022/03/21 07:55:18;;;;;;;15.67;11.47;;;8.30;41.80;;;;;;5011261;28;20459;-73
2022/03/21 07:57:45;;;;;;;18.33;12.30;;;8.70;41.30;;;;;;5024982;28;20475;-73
2022/03/21 08:00:15;;;;;;;26.33;17.13;;;8.80;41.50;;;;;;5029284;28;20450;-77
2022/03/21 08:02:43;;;;;;;15.30;10.83;;;8.90;41.90;;;;;;5029035;28;20490;-73
2022/03/21 08:05:11;;;;;;;15.40;11.00;;;8.90;40.90;;;;;;5029144;28;20517;-74
2022/03/21 08:07:39;;;;;;;15.57;11.90;;;9.30;40.60;;;;;;5029092;28;20498;-73
2022/03/21 08:10:07;;;;;;;17.60;12.40;;;9.50;40.00;;;;;;5032124;28;20450;-82
2022/03/21 08:12:35;;;;;;;14.37;11.70;;;9.70;40.20;;;;;;5033216;28;20454;-82
2022/03/21 08:15:02;;;;;;;13.73;10.47;;;9.70;39.70;;;;;;5036310;28;20494;-78
2022/03/21 08:17:31;;;;;;;15.57;12.50;;;9.90;39.70;;;;;;5039388;28;20867;-77
2022/03/21 08:19:58;;;;;;;21.87;13.10;;;10.00;38.70;;;;;;5034737;28;20939;-72
2022/03/21 08:22:27;;;;;;;17.40;11.77;;;10.20;39.00;;;;;;5031684;28;21025;-76
2022/03/21 08:24:54;;;;;;;16.10;10.80;;;10.30;38.80;;;;;;5032574;28;20553;-76
2022/03/21 08:27:22;;;;;;;17.43;12.20;;;10.50;38.10;;;;;;5032314;28;20999;-77
2022/03/21 08:29:49;;;;;;;16.63;12.77;;;10.60;37.90;;;;;;5032717;28;20576;-75
2022/03/21 08:32:16;;;;;;;21.20;12.70;;;10.50;37.50;;;;;;5034112;28;20461;-78
2022/03/21 08:34:45;;;;;;;19.47;12.77;;;10.50;38.50;;;;;;5039561;28;20455;-79
2022/03/21 08:37:12;;;;;;;19.00;13.37;;;10.70;38.20;;;;;;5034797;28;20474;-80
2022/03/21 08:39:39;;;;;;;15.00;11.73;;;10.80;38.50;;;;;;5034070;28;20447;-71
2022/03/21 08:42:06;;;;;;;17.23;12.17;;;10.90;37.90;;;;;;5032383;28;20509;-71
2022/03/21 08:44:34;;;;;;;14.97;11.00;;;11.00;37.90;;;;;;5032059;28;20477;-74
2022/03/21 08:47:01;;;;;;;13.33;10.40;;;10.90;37.30;;;;;;5016449;28;20749;-79
2022/03/21 08:49:28;;;;;;;16.67;12.13;;;10.70;38.10;;;;;;5012288;28;20451;-76
2022/03/21 08:51:57;;;;;;;16.53;11.73;;;10.60;36.80;;;;;;5027972;28;20451;-79
2022/03/21 08:54:24;;;;;;;14.40;11.10;;;10.70;37.90;;;;;;5014483;28;20821;-75
2022/03/21 08:56:51;;;;;;;15.97;10.30;;;10.80;37.40;;;;;;5032168;28;20450;-79
2022/03/21 08:59:18;;;;;;;17.40;10.70;;;11.00;37.50;;;;;;5031889;28;20455;-72
2022/03/21 09:01:45;;;;;;;16.50;10.77;;;11.10;37.00;;;;;;5031524;28;20490;-73
2022/03/21 09:04:13;;;;;;;19.30;10.70;;;11.30;37.00;;;;;;5031211;28;20494;-75
2022/03/21 09:06:40;;;;;;;13.37;10.30;;;11.10;36.80;;;;;;5031386;28;20851;-74
2022/03/21 09:09:08;;;;;;;15.60;11.50;;;10.80;36.40;;;;;;5031259;28;20510;-73
2022/03/21 09:11:37;;;;;;;21.33;11.17;;;10.30;37.10;;;;;;5031396;28;20450;-74
2022/03/21 09:14:04;;;;;;;15.70;10.20;;;10.40;38.10;;;;;;5031436;28;20455;-73
2022/03/21 09:16:32;;;;;;;14.70;10.93;;;10.80;37.90;;;;;;5031118;28;20458;-75
2022/03/21 09:18:59;;;;;;;12.73;10.20;;;11.00;37.70;;;;;;5031033;28;20483;-71
2022/03/21 09:21:27;;;;;;;14.40;10.73;;;11.10;36.70;;;;;;5030308;28;20450;-71
2022/03/21 09:23:54;;;;;;;13.57;9.57;;;11.10;36.70;;;;;;5031211;28;20490;-77
2022/03/21 09:26:22;;;;;;;21.93;10.93;;;11.20;36.90;;;;;;5030931;28;20463;-76
2022/03/21 09:28:50;;;;;;;18.83;11.00;;;11.40;36.20;;;;;;5030857;28;20493;-76
2022/03/21 09:31:17;;;;;;;15.80;10.70;;;11.30;36.00;;;;;;5031133;28;20815;-79
2022/03/21 09:33:44;;;;;;;16.25;11.18;;;11.20;36.20;;;;;;5029709;28;20449;-69
2022/03/21 09:36:12;;;;;;;14.93;11.00;;;11.40;36.60;;;;;;5030411;28;20211;-74
2022/03/21 09:38:39;;;;;;;15.13;11.23;;;11.70;36.00;;;;;;5030226;28;20979;-71
2022/03/21 09:41:07;;;;;;;13.03;10.63;;;11.70;36.00;;;;;;5030360;28;20458;-72
2022/03/21 09:43:39;;;;;;;15.73;10.30;;;11.80;36.30;;;;;;5030459;28;20518;-72
2022/03/21 09:46:09;;;;;;;19.03;12.70;;;11.80;35.20;;;;;;5018476;28;20517;-72
2022/03/21 09:48:36;;;;;;;16.20;11.40;;;12.00;35.10;;;;;;5010487;28;20475;-72
2022/03/21 09:51:04;;;;;;;15.90;10.60;;;12.20;35.70;;;;;;5010676;28;20920;-72
2022/03/21 09:53:32;;;;;;;16.43;9.80;;;12.40;35.30;;;;;;5010488;28;20967;-71
2022/03/21 09:56:00;;;;;;;14.13;9.30;;;12.60;35.40;;;;;;5010865;28;20528;-71
2022/03/21 09:58:30;;;;;;;15.77;10.57;;;12.70;35.00;;;;;;5010680;28;20486;-70
2022/03/21 10:00:58;;;;;;;15.40;11.93;;;12.70;34.50;;;;;;5010464;28;20499;-71
2022/03/21 10:03:25;;;;;;;18.80;12.60;;;12.80;33.90;;;;;;5010441;28;20498;-71
2022/03/21 10:05:52;;;;;;;14.67;11.37;;;13.00;34.30;;;;;;5010681;28;20458;-74
2022/03/21 10:08:22;;;;;;;14.87;10.27;;;12.90;33.80;;;;;;5010391;28;20551;-70
2022/03/21 10:10:54;;;;;;;14.23;11.10;;;13.00;34.50;;;;;;5010679;28;20456;-70
2022/03/21 10:13:23;;;;;;;14.17;11.03;;;13.20;34.00;;;;;;5010577;28;20459;-70
2022/03/21 10:15:50;;;;;;;13.43;9.60;;;13.30;33.70;;;;;;5010244;28;20459;-68
2022/03/21 10:18:19;;;;;;;20.20;10.20;;;13.20;34.70;;;;;;5009994;28;20832;-71
2022/03/21 10:20:46;;;;;;;13.87;10.57;;;13.40;33.80;;;;;;5010953;28;21462;-69
2022/03/21 10:23:22;;;;;;;14.93;10.40;;;13.10;33.70;;;;;;5009608;28;20527;-72
2022/03/21 10:25:49;;;;;;;13.77;10.90;;;13.20;34.00;;;;;;5009569;28;20816;-70
2022/03/21 10:28:36;;;;;;;13.37;11.27;;;13.60;33.60;;;;;;5009624;28;20476;-70
2022/03/21 10:31:05;;;;;;;16.50;10.63;;;13.80;33.40;;;;;;5009703;28;20448;-71
2022/03/21 10:33:33;;;;;;;11.87;9.30;;;14.10;32.70;;;;;;5009561;28;20436;-70
2022/03/21 10:36:06;;;;;;;13.40;9.47;;;14.20;32.50;;;;;;5010266;28;21001;-69
2022/03/21 10:38:34;;;;;;;12.80;8.93;;;14.20;32.50;;;;;;5009747;28;20566;-71
2022/03/21 10:41:07;;;;;;;14.90;10.43;;;14.50;32.20;;;;;;5009960;28;20480;-69
2022/03/21 10:43:35;;;;;;;16.17;10.40;;;14.60;32.10;;;;;;5010059;28;20597;-71
2022/03/21 10:46:04;;;;;;;14.70;10.30;;;14.60;31.40;;;;;;5009750;28;20458;-73
2022/03/21 10:48:35;;;;;;;12.63;9.80;;;14.80;31.50;;;;;;5010168;28;20480;-71
2022/03/21 10:51:04;;;;;;;12.80;9.70;;;15.10;31.00;;;;;;5010230;28;20518;-70
2022/03/21 10:53:38;;;;;;;15.73;9.77;;;15.30;31.40;;;;;;5009921;28;20502;-69
2022/03/21 10:56:08;;;;;;;17.77;11.20;;;15.10;31.10;;;;;;5009566;28;20460;-72
2022/03/21 10:58:36;;;;;;;17.53;10.93;;;14.60;31.60;;;;;;5009578;28;20853;-71
2022/03/21 11:01:17;;;;;;;15.27;11.20;;;13.90;31.90;;;;;;5009176;28;20525;-72
2022/03/21 11:03:49;;;;;;;12.43;10.97;;;13.70;32.40;;;;;;5009211;28;20487;-72
2022/03/21 11:06:16;;;;;;;16.10;10.57;;;13.80;32.20;;;;;;4991607;28;20451;-72
2022/03/21 11:08:47;;;;;;;13.27;10.60;;;13.80;32.70;;;;;;5009324;28;20479;-69
2022/03/21 11:11:15;;;;;;;15.93;11.47;;;13.70;32.50;;;;;;5009749;28;20830;-72
2022/03/21 11:13:42;;;;;;;14.77;10.57;;;13.30;31.90;;;;;;5009685;28;20881;-73
2022/03/21 11:16:09;;;;;;;14.80;10.47;;;12.80;32.30;;;;;;5009301;28;20452;-73
2022/03/21 11:18:37;;;;;;;13.13;10.27;;;12.70;32.90;;;;;;5008950;28;20481;-72
2022/03/21 11:21:07;;;;;;;17.90;11.80;;;13.10;33.50;;;;;;5009123;28;20459;-73
2022/03/21 11:23:34;;;;;;;14.30;10.30;;;13.10;32.80;;;;;;5008958;28;20585;-72
2022/03/21 11:26:09;;;;;;;16.03;9.70;;;13.00;32.90;;;;;;5009360;28;20773;-70
2022/03/21 11:29:09;;;;;;;14.77;9.73;;;13.10;33.10;;;;;;5009194;28;20996;-73
2022/03/21 11:31:56;;;;;;;11.83;10.17;;;13.50;32.90;;;;;;5009030;28;20475;-71
2022/03/21 11:34:37;;;;;;;13.17;10.03;;;13.90;32.20;;;;;;5009370;28;20471;-71
2022/03/21 11:37:06;;;;;;;12.93;8.87;;;14.10;31.20;;;;;;5008599;28;20466;-69
2022/03/21 11:39:33;;;;;;;11.30;8.40;;;14.40;31.20;;;;;;5008973;28;20451;-76
2022/03/21 11:42:03;;;;;;;15.13;9.47;;;14.60;31.20;;;;;;5009016;28;20470;-73
2022/03/21 11:44:30;;;;;;;11.50;9.00;;;14.70;31.20;;;;;;5012486;28;20479;-74
2022/03/21 11:47:23;;;;;;;13.67;10.97;;;14.70;30.90;;;;;;5012288;28;20487;-73
2022/03/21 11:49:50;;;;;;;14.30;10.20;;;14.90;31.10;;;;;;5013292;28;20574;-72
2022/03/21 11:52:18;;;;;;;10.30;8.70;;;15.20;31.30;;;;;;5013004;28;20815;-74
2022/03/21 11:54:46;;;;;;;11.63;8.77;;;15.40;30.60;;;;;;5012335;28;20458;-72
2022/03/21 11:57:26;;;;;;;15.70;9.33;;;15.50;30.00;;;;;;5012768;28;20480;-71
2022/03/21 12:00:01;;;;;;;13.17;9.20;;;15.60;30.50;;;;;;5012711;28;20874;-72
2022/03/21 12:03:01;;;;;;;13.23;8.90;;;15.80;30.00;;;;;;5012484;28;20483;-73
2022/03/21 12:05:49;;;;;;;11.37;8.60;;;15.60;29.70;;;;;;5012870;28;20446;-74
2022/03/21 12:08:44;;;;;;;11.00;8.73;;;15.40;29.90;;;;;;5013197;28;20796;-74
2022/03/21 12:11:48;;;;;;;11.53;9.00;;;15.70;30.40;;;;;;5012404;28;20976;-71
2022/03/21 12:14:28;;;;;;;12.23;9.30;;;15.70;31.60;;;;;;5012814;28;20455;-67
2022/03/21 12:17:27;;;;;;;12.47;9.93;;;15.90;31.50;;;;;;5012783;28;20491;-75
2022/03/21 12:20:02;;;;;;;13.13;8.90;;;16.10;30.40;;;;;;5013406;28;20526;-70
2022/03/21 12:22:37;;;;;;;13.73;10.37;;;16.10;30.60;;;;;;5012665;28;20578;-72
2022/03/21 12:25:09;;;;;;;13.90;10.30;;;16.30;30.20;;;;;;5012231;28;20490;-71
2022/03/21 12:27:37;;;;;;;13.87;10.27;;;16.20;30.60;;;;;;5012119;28;20475;-72
2022/03/21 12:30:35;;;;;;;11.17;8.83;;;16.50;30.10;;;;;;5012533;28;20467;-71
2022/03/21 12:33:28;;;;;;;12.40;9.80;;;16.70;30.00;;;;;;5007785;28;20462;-75
2022/03/21 12:35:58;;;;;;;12.73;9.10;;;16.90;29.30;;;;;;5012147;28;20451;-72
2022/03/21 12:38:28;;;;;;;15.40;10.10;;;17.00;30.00;;;;;;5012307;28;20478;-76
2022/03/21 12:41:00;;;;;;;11.73;9.70;;;17.20;29.60;;;;;;5012533;28;20495;-80
2022/03/21 12:43:28;;;;;;;14.23;9.83;;;17.10;29.50;;;;;;5012576;28;20491;-76
2022/03/21 12:46:07;;;;;;;14.13;8.60;;;16.80;29.30;;;;;;5011646;28;20459;-74
2022/03/21 12:48:36;;;;;;;12.30;9.00;;;16.60;29.00;;;;;;5012024;28;20479;-75
2022/03/21 12:51:04;;;;;;;11.50;9.73;;;16.60;29.80;;;;;;5012226;28;20495;-73
2022/03/21 12:53:39;;;;;;;11.93;8.30;;;16.80;30.00;;;;;;5011725;28;20459;-72
2022/03/21 12:56:09;;;;;;;12.33;9.00;;;16.90;29.50;;;;;;5010890;28;20847;-71
2022/03/21 12:58:38;;;;;;;12.13;9.20;;;16.80;29.20;;;;;;5011510;28;20570;-69
2022/03/21 13:01:06;;;;;;;13.40;9.40;;;16.40;29.50;;;;;;5011418;28;20912;-70